createdAt,value
2023-03-30T00:00:03.027Z,1012.66
2023-03-30T00:05:04.579Z,1012.67
2023-03-30T00:10:03.538Z,1012.36
2023-03-30T00:15:03.339Z,1012.11
2023-03-30T00:20:03.445Z,1012.14
2023-03-30T00:25:03.007Z,1012.33
2023-03-30T00:30:03.103Z,1012.13
2023-03-30T00:35:03.627Z,1011.73
2023-03-30T00:40:03.508Z,1011.8
2023-03-30T00:45:03.301Z,1011.84
2023-03-30T00:50:03.235Z,1011.6
2023-03-30T00:55:03.868Z,1011.68
2023-03-30T01:00:03.451Z,1011.73
2023-03-30T01:05:03.399Z,1011.6
2023-03-30T01:10:03.199Z,1011.32
2023-03-30T01:15:03.555Z,1011.23
2023-03-30T01:20:03.106Z,1011.07
2023-03-30T01:25:03.072Z,1011.07
2023-03-30T01:30:03.731Z,1011.04
2023-03-30T01:35:03.620Z,1010.9
2023-03-30T01:40:03.103Z,1011.05
2023-03-30T01:45:02.884Z,1010.86
2023-03-30T01:50:02.994Z,1010.82
2023-03-30T01:55:04.117Z,1010.73
2023-03-30T02:00:03.404Z,1010.72
2023-03-30T02:05:02.973Z,1010.71
2023-03-30T02:10:02.955Z,1010.63
2023-03-30T02:15:03.798Z,1010.6
2023-03-30T02:20:03.923Z,1010.36
2023-03-30T02:25:03.397Z,1010.21
2023-03-30T02:30:03.137Z,1010.2
2023-03-30T02:35:02.834Z,1009.98
2023-03-30T02:40:03.730Z,1010.14
2023-03-30T02:45:03.707Z,1010.18
2023-03-30T02:50:03.407Z,1010
2023-03-30T02:55:03.563Z,1009.81
2023-03-30T03:00:03.175Z,1009.75
2023-03-30T03:05:03.238Z,1009.69
2023-03-30T03:10:02.790Z,1009.71
2023-03-30T03:15:03.631Z,1009.58
2023-03-30T03:20:03.514Z,1009.62
2023-03-30T03:25:03.180Z,1009.44
2023-03-30T03:30:03.059Z,1009.45
2023-03-30T03:35:02.957Z,1009.41
2023-03-30T03:40:03.087Z,1009.32
2023-03-30T03:45:03.015Z,1009.29
2023-03-30T03:50:03.708Z,1009.16
2023-03-30T03:55:03.744Z,1009.36
2023-03-30T04:00:03.175Z,1009.07
2023-03-30T04:05:03.490Z,1009.15
2023-03-30T04:10:03.037Z,1008.95
2023-03-30T04:15:03.733Z,1009.24
2023-03-30T04:20:03.580Z,1009.39
2023-03-30T04:25:03.492Z,1009.13
2023-03-30T04:30:03.272Z,1009.14
2023-03-30T04:35:03.045Z,1008.91
2023-03-30T04:40:02.893Z,1008.75
2023-03-30T04:45:03.547Z,1008.59
2023-03-30T04:50:03.309Z,1008.79
2023-03-30T04:55:03.690Z,1008.62
2023-03-30T05:00:02.880Z,1008.59
2023-03-30T05:05:03.801Z,1008.72
2023-03-30T05:10:03.456Z,1008.69
2023-03-30T05:15:03.290Z,1008.55
2023-03-30T05:20:03.031Z,1008.64
2023-03-30T05:25:02.843Z,1008.51
2023-03-30T05:30:03.050Z,1008.31
2023-03-30T05:35:03.607Z,1008.2
2023-03-30T05:40:03.868Z,1008.09
2023-03-30T05:45:03.552Z,1008.15
2023-03-30T05:50:03.375Z,1008.41
2023-03-30T05:55:03.048Z,1008.62
2023-03-30T06:00:03.058Z,1008.41
2023-03-30T06:05:04.583Z,1008.26
2023-03-30T06:10:03.322Z,1008.19
2023-03-30T06:15:03.967Z,1008.09
2023-03-30T06:20:02.900Z,1008.16
2023-03-30T06:25:03.677Z,1008.12
2023-03-30T06:30:03.860Z,1008.02
2023-03-30T06:35:03.217Z,1008
2023-03-30T06:40:03.062Z,1007.78
2023-03-30T06:45:02.935Z,1007.6
2023-03-30T06:50:03.792Z,1007.73
2023-03-30T06:55:03.896Z,1007.74
2023-03-30T07:00:03.424Z,1007.66
2023-03-30T07:05:03.117Z,1007.37
2023-03-30T07:10:03.212Z,1007.28
2023-03-30T07:15:03.911Z,1007.4
2023-03-30T07:20:03.611Z,1007.44
2023-03-30T07:25:03.450Z,1007.48
2023-03-30T07:30:23.211Z,1007.5
2023-03-30T07:35:03.079Z,1007.56
2023-03-30T07:40:03.027Z,1007.51
2023-03-30T07:45:03.825Z,1007.42
2023-03-30T07:50:03.374Z,1007.32
2023-03-30T07:55:02.983Z,1007.21
2023-03-30T08:00:02.580Z,1007.16
2023-03-30T08:05:04.358Z,1007.15
2023-03-30T08:10:03.600Z,1007.24
2023-03-30T08:15:03.399Z,1007.34
2023-03-30T08:20:03.661Z,1007.32
2023-03-30T08:25:03.304Z,1007.47
2023-03-30T08:30:03.107Z,1007.38
2023-03-30T08:35:03.821Z,1007.38
2023-03-30T08:40:03.659Z,1007.49
2023-03-30T08:45:03.446Z,1007.71
2023-03-30T08:50:03.579Z,1007.69
2023-03-30T08:55:03.354Z,1007.68
2023-03-30T09:00:03.781Z,1007.7
2023-03-30T09:05:03.736Z,1007.62
2023-03-30T09:10:03.511Z,1007.65
2023-03-30T09:15:03.436Z,1007.63
2023-03-30T09:20:03.210Z,1007.58
2023-03-30T09:25:02.948Z,1007.61
2023-03-30T09:30:03.715Z,1007.63
2023-03-30T09:35:03.517Z,1007.67
2023-03-30T09:40:03.275Z,1007.69
2023-03-30T09:45:02.920Z,1007.65
2023-03-30T09:50:03.308Z,1007.52
2023-03-30T09:55:04.012Z,1007.57
2023-03-30T10:00:03.700Z,1007.59
2023-03-30T10:05:04.041Z,1007.55
2023-03-30T10:10:03.507Z,1007.62
2023-03-30T10:15:03.569Z,1007.48
2023-03-30T10:20:15.005Z,1007.35
2023-03-30T10:25:02.835Z,1007.34
2023-03-30T10:30:03.534Z,1007.43
2023-03-30T10:35:03.244Z,1007.41
2023-03-30T10:40:03.119Z,1007.31
2023-03-30T10:45:03.180Z,1007.42
2023-03-30T10:50:03.771Z,1007.37
2023-03-30T10:55:03.806Z,1007.37
2023-03-30T11:00:03.203Z,1007.32
2023-03-30T11:05:02.888Z,1007.4
2023-03-30T11:10:03.039Z,1007.33
2023-03-30T11:15:03.780Z,1007.22
2023-03-30T11:20:03.436Z,1007.1
2023-03-30T11:25:03.088Z,1007.22
2023-03-30T11:30:02.852Z,1007.14
2023-03-30T11:35:03.636Z,1006.94
2023-03-30T11:40:03.436Z,1006.91
2023-03-30T11:45:03.260Z,1006.92
2023-03-30T11:50:03.194Z,1006.74
2023-03-30T11:55:05.082Z,1006.58
2023-03-30T12:00:03.277Z,1006.62
2023-03-30T12:05:04.209Z,1006.68
2023-03-30T12:10:08.843Z,1006.69
2023-03-30T12:15:03.716Z,1006.49
2023-03-30T12:20:03.688Z,1006.28
2023-03-30T12:25:03.776Z,1006.22
2023-03-30T12:30:04.676Z,1006.13
2023-03-30T12:35:03.643Z,1006.03
2023-03-30T12:40:03.248Z,1006.04
2023-03-30T12:45:02.943Z,1005.95
2023-03-30T12:50:03.760Z,1005.93
2023-03-30T12:55:03.643Z,1005.8
2023-03-30T13:00:03.446Z,1005.79
2023-03-30T13:05:03.188Z,1006.04
2023-03-30T13:10:07.304Z,1005.97
2023-03-30T13:15:03.148Z,1005.97
2023-03-30T13:20:02.974Z,1005.77
2023-03-30T13:25:03.673Z,1005.7
2023-03-30T13:30:03.475Z,1005.63
2023-03-30T13:35:08.601Z,1005.65
2023-03-30T13:40:03.522Z,1005.59
2023-03-30T13:45:03.204Z,1005.44
2023-03-30T13:50:03.116Z,1005.48
2023-03-30T13:55:04.166Z,1005.47
2023-03-30T14:00:03.470Z,1005.5
2023-03-30T14:05:03.083Z,1005.48
2023-03-30T14:10:03.053Z,1005.6
2023-03-30T14:15:03.255Z,1005.76
2023-03-30T14:20:03.238Z,1006.67
2023-03-30T14:30:03.671Z,1007.07
2023-03-30T14:40:03.440Z,1007.39
2023-03-30T14:45:03.124Z,1007.33
2023-03-30T14:50:03.311Z,1007.27
2023-03-30T14:55:17.525Z,1007.3
2023-03-30T15:00:03.109Z,1007.26
2023-03-30T15:05:03.756Z,1007.29
2023-03-30T15:10:03.777Z,1007.2
2023-03-30T15:15:03.573Z,1007
2023-03-30T15:25:03.359Z,1006.71
2023-03-30T15:30:03.575Z,1006.9
2023-03-30T15:35:02.971Z,1006.75
2023-03-30T15:40:03.918Z,1006.83
2023-03-30T15:45:03.579Z,1006.77
2023-03-30T15:50:03.300Z,1006.85
2023-03-30T15:55:03.717Z,1006.99
2023-03-30T16:00:03.221Z,1006.98
2023-03-30T16:05:03.080Z,1007.02
2023-03-30T16:10:03.364Z,1006.97
2023-03-30T16:15:03.291Z,1007.02
2023-03-30T16:20:06.861Z,1007.03
2023-03-30T16:25:03.317Z,1007.02
2023-03-30T16:30:08.653Z,1007.16
2023-03-30T16:35:03.577Z,1007.2
2023-03-30T16:40:02.812Z,1007.14
2023-03-30T16:45:03.608Z,1007.13
2023-03-30T16:50:03.344Z,1007.19
2023-03-30T16:55:03.290Z,1007.22
2023-03-30T17:00:03.213Z,1007.28
2023-03-30T17:05:03.175Z,1007.28
2023-03-30T17:10:03.761Z,1007.39
2023-03-30T17:15:03.517Z,1007.56
2023-03-30T17:20:03.452Z,1007.71
2023-03-30T17:25:03.403Z,1007.88
2023-03-30T17:30:03.148Z,1007.83
2023-03-30T17:35:02.807Z,1007.83
2023-03-30T17:40:03.652Z,1007.75
2023-03-30T17:45:03.529Z,1007.65
2023-03-30T17:50:03.030Z,1007.82
2023-03-30T17:55:03.252Z,1007.97
2023-03-30T18:00:03.806Z,1008.02
2023-03-30T18:05:03.468Z,1007.98
2023-03-30T18:10:03.291Z,1008.05
2023-03-30T18:15:03.181Z,1008.04
2023-03-30T18:20:03.014Z,1008.07
2023-03-30T18:25:02.928Z,1008.23
2023-03-30T18:30:03.648Z,1008.16
2023-03-30T18:35:03.576Z,1008.23
2023-03-30T18:40:03.241Z,1008.2
2023-03-30T18:45:03.703Z,1008.17
2023-03-30T18:50:03.091Z,1008.19
2023-03-30T18:55:03.060Z,1008.23
2023-03-30T19:00:03.622Z,1008.26
2023-03-30T19:05:03.198Z,1008.31
2023-03-30T19:10:03.352Z,1008.33
2023-03-30T19:15:03.480Z,1008.35
2023-03-30T19:20:02.906Z,1008.33
2023-03-30T19:25:03.694Z,1008.41
2023-03-30T19:30:03.448Z,1008.47
2023-03-30T19:35:03.137Z,1008.49
2023-03-30T19:40:02.962Z,1008.63
2023-03-30T19:45:03.639Z,1008.63
2023-03-30T19:50:02.806Z,1008.67
2023-03-30T19:55:03.225Z,1008.69
2023-03-30T20:00:02.812Z,1008.6
2023-03-30T20:05:03.687Z,1008.72
2023-03-30T20:10:03.544Z,1008.73
2023-03-30T20:15:03.299Z,1008.78
2023-03-30T20:20:03.137Z,1008.74
2023-03-30T20:25:02.907Z,1008.76
2023-03-30T20:30:03.695Z,1008.73
2023-03-30T20:35:03.411Z,1008.71
2023-03-30T20:40:04.933Z,1008.71
2023-03-30T20:45:03.767Z,1008.77
2023-03-30T20:50:03.579Z,1008.78
2023-03-30T20:55:03.412Z,1008.82
2023-03-30T21:00:02.993Z,1008.79
2023-03-30T21:05:03.729Z,1008.76
2023-03-30T21:10:03.391Z,1008.78
2023-03-30T21:15:03.440Z,1008.62
2023-03-30T21:20:03.660Z,1008.55
2023-03-30T21:25:03.447Z,1008.45
2023-03-30T21:30:03.303Z,1008.39
2023-03-30T21:35:02.943Z,1008.43
2023-03-30T21:40:03.837Z,1008.43
2023-03-30T21:45:03.125Z,1008.45
2023-03-30T21:50:03.296Z,1008.5
2023-03-30T21:55:03.331Z,1008.41
2023-03-30T22:00:02.806Z,1008.44
2023-03-30T22:05:03.029Z,1008.55
2023-03-30T22:10:02.918Z,1008.46
2023-03-30T22:15:03.729Z,1008.43
2023-03-30T22:20:03.521Z,1008.38
2023-03-30T22:25:03.239Z,1008.4
2023-03-30T22:30:03.052Z,1008.25
2023-03-30T22:35:03.671Z,1008.26
2023-03-30T22:40:03.554Z,1008.13
2023-03-30T22:45:03.162Z,1008.25
2023-03-30T22:50:03.263Z,1008.13
2023-03-30T22:55:03.536Z,1008.07
2023-03-30T23:00:02.932Z,1008.09
2023-03-30T23:05:02.770Z,1007.95
2023-03-30T23:10:03.505Z,1007.88
2023-03-30T23:15:03.653Z,1007.88
2023-03-30T23:20:03.309Z,1007.86
2023-03-30T23:25:03.091Z,1007.8
2023-03-30T23:30:02.941Z,1007.84
2023-03-30T23:35:03.864Z,1007.82
2023-03-30T23:40:03.703Z,1007.91
2023-03-30T23:45:02.939Z,1007.84
2023-03-30T23:50:03.759Z,1007.79
2023-03-30T23:55:04.343Z,1007.72
